Maran Poseidon — SVAV3 — position and weather

sailwx.info

Track history (hours):
 
Tides and Currents Weather Stations Pressure Air Temp Water Temp Dewpoint Dewpoint Depression Visibility Wind Speed Wind Dir Waves Ship Positions

Maran Poseidon

Last reported at 2017-Nov-25 23:32 UTC. Time now 2017-Dec-11 13:03 UTC.
Position N 29°21' W 094°43'.
Warning: this ship's position is 15 days out of date.

Length 274 m; draft 9.5 m.

Type: Ship. MMSI: 240959000.

Date/timePositionNaut miles runAvg speedWind from/ knotsBaromVisibWave heightAir tempDewpointWater temp
2017-Nov-25 23:32N 29°21' W 094°43'214.9
2017-Nov-25 23:26N 29°21' W 094°45'512.8
2017-Nov-25 23:00N 29°24' W 094°49'612.8
2017-Nov-25 22:30N 29°30' W 094°52'611.8
2017-Nov-25 22:00N 29°35' W 094°56'611.2
2017-Nov-25 21:30N 29°40' W 094°59'4 8.5
2017-Nov-25 21:00N 29°44' W 095°01'4 7.6
2017-Nov-25 20:29N 29°46' W 095°05'2 4.8
2017-Nov-25 20:00N 29°44' W 095°07'0 0.0
2017-Nov-23 19:34N 29°44' W 095°07'0 0.0
2017-Nov-23 19:25N 29°44' W 095°07'0 0.0
2017-Nov-23 18:59N 29°44' W 095°07'0 0.6
2017-Nov-23 18:30N 29°44' W 095°07'2 4.2
2017-Nov-23 18:00N 29°46' W 095°05'3 5.7
2017-Nov-23 17:30N 29°44' W 095°03'2 4.9
2017-Nov-23 17:01N 29°42' W 095°01'3 5.8
2017-Nov-23 16:30N 29°40' W 094°59'5 9.0
2017-Nov-23 16:00N 29°36' W 094°57'510.4
2017-Nov-23 15:30N 29°31' W 094°53'510.6
2017-Nov-23 15:00N 29°27' W 094°51'510.7
2017-Nov-23 14:30N 29°22' W 094°48'  
2017-Nov-17 02:34N 29°18' W 094°31'0 0.0
2017-Nov-17 02:07N 29°18' W 094°31'0 0.0
2017-Nov-17 01:55N 29°18' W 094°31'0 0.0
2017-Nov-16 13:34N 29°18' W 094°31'  
Track history (hours):
 
Tides and Currents Weather Stations Pressure Air Temp Water Temp Dewpoint Dewpoint Depression Visibility Wind Speed Wind Dir Waves Ship Positions

Maran Poseidon

Last reported at 2017-Nov-25 23:32 UTC. Time now 2017-Dec-11 13:03 UTC.
Position N 29°21' W 094°43'.
Warning: this ship's position is 15 days out of date.

Length 274 m; draft 9.5 m.

Type: Ship. MMSI: 240959000.

Date/timePositionNaut miles runAvg speedWind from/ knotsBaromVisibWave heightAir tempDewpointWater temp
2017-Nov-25 23:32N 29°21' W 094°43'214.9
2017-Nov-25 23:26N 29°21' W 094°45'512.8
2017-Nov-25 23:00N 29°24' W 094°49'612.8
2017-Nov-25 22:30N 29°30' W 094°52'611.8
2017-Nov-25 22:00N 29°35' W 094°56'611.2
2017-Nov-25 21:30N 29°40' W 094°59'4 8.5
2017-Nov-25 21:00N 29°44' W 095°01'4 7.6
2017-Nov-25 20:29N 29°46' W 095°05'2 4.8
2017-Nov-25 20:00N 29°44' W 095°07'0 0.0
2017-Nov-23 19:34N 29°44' W 095°07'0 0.0
2017-Nov-23 19:25N 29°44' W 095°07'0 0.0
2017-Nov-23 18:59N 29°44' W 095°07'0 0.6
2017-Nov-23 18:30N 29°44' W 095°07'2 4.2
2017-Nov-23 18:00N 29°46' W 095°05'3 5.7
2017-Nov-23 17:30N 29°44' W 095°03'2 4.9
2017-Nov-23 17:01N 29°42' W 095°01'3 5.8
2017-Nov-23 16:30N 29°40' W 094°59'5 9.0
2017-Nov-23 16:00N 29°36' W 094°57'510.4
2017-Nov-23 15:30N 29°31' W 094°53'510.6
2017-Nov-23 15:00N 29°27' W 094°51'510.7
2017-Nov-23 14:30N 29°22' W 094°48'  
2017-Nov-17 02:34N 29°18' W 094°31'0 0.0
2017-Nov-17 02:07N 29°18' W 094°31'0 0.0
2017-Nov-17 01:55N 29°18' W 094°31'0 0.0
2017-Nov-16 13:34N 29°18' W 094°31'  

Dump ship's entire track history